Time;durP1;ratioP1;P1;durP2;ratioP2;P2;SDS_P1;SDS_P2;PMS_P1;PMS_P2;Temp;Humidity;BMP_temperature;BMP_pressure;BME280_temperature;BME280_humidity;BME280_pressure;Samples;Min_cycle;Max_cycle;Signal;HPM_P1;HPM_P2
2023/09/30 00:02:21;;;;;;;4.28;2.33;;;18.80;99.90;;;;;;5030529;28;20271;-62
2023/09/30 00:04:47;;;;;;;2.50;1.90;;;18.70;99.90;;;;;;5031265;28;20222;-61
2023/09/30 00:07:14;;;;;;;3.53;1.92;;;18.70;99.90;;;;;;5030839;28;20233;-62
2023/09/30 00:09:42;;;;;;;4.43;1.95;;;18.70;99.90;;;;;;5031226;28;20206;-61
2023/09/30 00:12:09;;;;;;;3.30;1.98;;;18.70;99.90;;;;;;5031324;28;20228;-62
2023/09/30 00:14:37;;;;;;;6.30;1.90;;;18.70;99.90;;;;;;5031311;28;20221;-61
2023/09/30 00:17:04;;;;;;;3.85;1.88;;;18.80;99.90;;;;;;5030981;28;20313;-61
2023/09/30 00:19:32;;;;;;;3.83;1.92;;;18.80;99.90;;;;;;5030918;28;20210;-62
2023/09/30 00:21:59;;;;;;;4.55;2.15;;;18.60;99.90;;;;;;5031411;28;20198;-62
2023/09/30 00:24:26;;;;;;;3.75;1.80;;;18.50;99.90;;;;;;5031133;28;20214;-61
2023/09/30 00:26:54;;;;;;;2.33;1.88;;;18.30;99.90;;;;;;5030832;28;20308;-61
2023/09/30 00:29:21;;;;;;;2.47;1.67;;;18.20;99.90;;;;;;5030997;28;20294;-62
2023/09/30 00:31:48;;;;;;;3.28;1.98;;;18.10;99.90;;;;;;5030902;28;20203;-60
2023/09/30 00:34:15;;;;;;;4.00;2.13;;;18.00;99.90;;;;;;5030647;28;20351;-62
2023/09/30 00:36:42;;;;;;;2.97;1.85;;;17.90;99.90;;;;;;5030498;28;20601;-62
2023/09/30 00:39:09;;;;;;;2.53;1.77;;;17.80;99.90;;;;;;5030847;28;20564;-62
2023/09/30 00:41:36;;;;;;;3.45;1.77;;;17.70;99.90;;;;;;5030580;28;20210;-61
2023/09/30 00:44:04;;;;;;;5.38;1.90;;;17.60;99.90;;;;;;5030932;28;20604;-61
2023/09/30 00:46:34;;;;;;;4.55;1.98;;;17.50;99.90;;;;;;5030386;28;20620;-61
2023/09/30 00:49:02;;;;;;;2.80;1.75;;;17.40;99.90;;;;;;5030871;28;20297;-60
2023/09/30 00:51:30;;;;;;;3.80;2.10;;;17.30;99.90;;;;;;5030861;28;20210;-61
2023/09/30 00:53:59;;;;;;;4.78;2.10;;;17.20;99.90;;;;;;5022578;28;20222;-60
2023/09/30 00:56:28;;;;;;;4.25;2.13;;;17.20;99.90;;;;;;5030293;28;20299;-61
2023/09/30 00:58:55;;;;;;;3.83;2.20;;;17.20;99.90;;;;;;5030579;28;20203;-60
2023/09/30 01:01:23;;;;;;;5.28;2.22;;;17.20;99.90;;;;;;5030468;28;20213;-63
2023/09/30 01:03:50;;;;;;;2.70;1.80;;;17.20;99.90;;;;;;5030685;28;20264;-61
2023/09/30 01:06:17;;;;;;;3.60;2.00;;;17.20;99.90;;;;;;5030439;28;20234;-60
2023/09/30 01:08:43;;;;;;;6.30;2.53;;;17.10;99.90;;;;;;5030676;28;20596;-61
2023/09/30 01:11:10;;;;;;;3.30;1.90;;;17.10;99.90;;;;;;5030308;28;20285;-61
2023/09/30 01:13:38;;;;;;;3.13;1.90;;;17.00;99.90;;;;;;5031290;28;20229;-61
2023/09/30 01:16:06;;;;;;;5.28;2.67;;;17.00;99.90;;;;;;5034410;28;20202;-61
2023/09/30 01:18:34;;;;;;;10.25;8.88;;;17.00;99.90;;;;;;5034173;28;20660;-61
2023/09/30 01:21:04;;;;;;;6.97;4.75;;;16.90;99.90;;;;;;5034466;28;20214;-61
2023/09/30 01:23:33;;;;;;;4.93;2.83;;;16.80;99.90;;;;;;5034254;28;20210;-59
2023/09/30 01:26:03;;;;;;;3.58;2.03;;;16.70;99.90;;;;;;5034235;28;20357;-62
2023/09/30 01:28:30;;;;;;;4.55;2.03;;;16.70;99.90;;;;;;5034754;28;20206;-62
2023/09/30 01:30:57;;;;;;;4.55;1.88;;;16.70;99.90;;;;;;5026751;28;20664;-61
2023/09/30 01:33:24;;;;;;;4.53;2.30;;;16.60;99.90;;;;;;5034354;28;20246;-61
2023/09/30 01:35:50;;;;;;;3.15;1.90;;;16.60;99.90;;;;;;5033883;28;20206;-61
2023/09/30 01:38:18;;;;;;;3.20;1.80;;;16.50;99.90;;;;;;5034128;28;20203;-61
2023/09/30 01:40:46;;;;;;;3.78;2.00;;;16.50;99.90;;;;;;5033964;28;20297;-61
2023/09/30 01:43:13;;;;;;;4.63;1.90;;;16.40;99.90;;;;;;5033988;28;20202;-61
2023/09/30 01:45:40;;;;;;;3.30;1.90;;;16.40;99.90;;;;;;5033682;28;20264;-61
2023/09/30 01:48:10;;;;;;;3.28;2.00;;;16.30;99.90;;;;;;5033823;28;20245;-61
2023/09/30 01:50:37;;;;;;;3.25;2.20;;;16.30;99.90;;;;;;5033760;28;20214;-62
2023/09/30 01:53:04;;;;;;;3.65;2.00;;;16.30;99.90;;;;;;5033666;28;20226;-62
2023/09/30 01:55:31;;;;;;;3.13;2.08;;;16.20;99.90;;;;;;5033291;28;20207;-62
2023/09/30 01:57:59;;;;;;;3.30;2.25;;;16.20;99.90;;;;;;5066630;22;20705;-57
2023/09/30 02:00:27;;;;;;;4.40;2.25;;;16.10;99.90;;;;;;5053417;28;20209;-59
2023/09/30 02:02:54;;;;;;;4.70;2.00;;;16.10;99.90;;;;;;5052895;28;20663;-57
2023/09/30 02:05:21;;;;;;;3.33;2.20;;;16.10;99.90;;;;;;5053020;28;20214;-58
2023/09/30 02:07:48;;;;;;;5.15;2.22;;;16.00;99.90;;;;;;5038119;28;20334;-59
2023/09/30 02:10:15;;;;;;;3.38;2.20;;;16.00;99.90;;;;;;5033182;28;20672;-58
2023/09/30 02:12:41;;;;;;;5.30;2.63;;;16.00;99.90;;;;;;5033183;28;20219;-57
2023/09/30 02:15:11;;;;;;;3.70;2.03;;;15.90;99.90;;;;;;5032984;28;20209;-58
2023/09/30 02:17:38;;;;;;;4.10;2.38;;;15.90;99.90;;;;;;5032592;28;20291;-58
2023/09/30 02:20:07;;;;;;;4.80;2.22;;;15.80;99.90;;;;;;5033133;28;20228;-59
2023/09/30 02:22:34;;;;;;;4.55;2.35;;;15.80;99.90;;;;;;5033016;28;20203;-58
2023/09/30 02:25:01;;;;;;;3.70;2.20;;;15.80;99.90;;;;;;5031926;28;20625;-58
2023/09/30 02:27:28;;;;;;;3.72;2.40;;;15.70;99.90;;;;;;5032836;28;20641;-58
2023/09/30 02:29:55;;;;;;;4.57;2.88;;;15.70;99.90;;;;;;5032651;28;20672;-58
2023/09/30 02:32:23;;;;;;;4.35;2.50;;;15.70;99.90;;;;;;5032886;28;20260;-58
2023/09/30 02:34:51;;;;;;;4.07;2.50;;;15.60;99.90;;;;;;5032600;28;20360;-59
2023/09/30 02:37:18;;;;;;;2.75;2.20;;;15.70;99.90;;;;;;5032433;28;20228;-58
2023/09/30 02:39:45;;;;;;;4.20;2.45;;;15.70;99.90;;;;;;5032994;28;20213;-58
2023/09/30 02:42:12;;;;;;;4.82;2.67;;;15.70;99.90;;;;;;5032837;28;20202;-58
2023/09/30 02:44:38;;;;;;;4.67;2.57;;;15.80;99.90;;;;;;5032508;28;20222;-57
2023/09/30 02:47:05;;;;;;;5.28;2.40;;;16.00;99.90;;;;;;5032438;28;20222;-57
2023/09/30 02:49:34;;;;;;;5.53;2.50;;;16.10;99.90;;;;;;5032583;28;20610;-58
2023/09/30 02:52:01;;;;;;;4.50;2.80;;;16.30;99.90;;;;;;5024966;28;20203;-57
2023/09/30 02:54:28;;;;;;;4.95;2.97;;;16.40;99.90;;;;;;5032518;28;20222;-58
2023/09/30 02:56:55;;;;;;;4.38;2.63;;;16.60;99.90;;;;;;5032189;28;20226;-58
2023/09/30 02:59:22;;;;;;;4.85;3.03;;;16.70;99.90;;;;;;5032665;28;20280;-58
2023/09/30 03:01:48;;;;;;;4.65;2.88;;;16.70;99.90;;;;;;5032241;28;20297;-58
2023/09/30 03:04:19;;;;;;;4.97;3.08;;;16.70;99.90;;;;;;5032121;28;20652;-57
2023/09/30 03:06:48;;;;;;;6.25;3.15;;;16.70;99.90;;;;;;5032254;28;20619;-58
2023/09/30 03:09:15;;;;;;;7.43;3.60;;;16.60;99.90;;;;;;5032298;28;20198;-58
2023/09/30 03:11:43;;;;;;;7.63;3.70;;;16.50;99.90;;;;;;5032080;28;20210;-58
2023/09/30 03:14:10;;;;;;;5.43;3.22;;;16.40;99.90;;;;;;5032098;28;20734;-58
2023/09/30 03:16:38;;;;;;;4.20;3.10;;;16.30;99.90;;;;;;5031618;28;20616;-58
2023/09/30 03:19:08;;;;;;;5.40;3.13;;;16.30;99.90;;;;;;5032222;28;20198;-58
2023/09/30 03:21:36;;;;;;;7.55;3.75;;;16.20;99.90;;;;;;5032045;28;20210;-58
2023/09/30 03:24:04;;;;;;;5.93;3.33;;;16.10;99.90;;;;;;5032002;28;20695;-58
2023/09/30 03:26:31;;;;;;;4.95;3.42;;;16.00;99.90;;;;;;5032184;28;20226;-57
2023/09/30 03:28:58;;;;;;;6.18;3.35;;;16.00;99.90;;;;;;5031833;28;20210;-58
2023/09/30 03:31:25;;;;;;;5.35;3.42;;;15.90;99.90;;;;;;5031948;28;20344;-57
2023/09/30 03:33:53;;;;;;;6.65;4.00;;;15.90;99.90;;;;;;5031401;28;20716;-58
2023/09/30 03:36:22;;;;;;;6.45;3.50;;;15.80;99.90;;;;;;5031722;28;20701;-58
2023/09/30 03:38:48;;;;;;;9.07;5.82;;;15.80;99.90;;;;;;5031665;28;20210;-58
2023/09/30 03:41:19;;;;;;;4.57;3.83;;;15.70;99.90;;;;;;5031885;28;20215;-58
2023/09/30 03:43:47;;;;;;;4.45;3.55;;;15.70;99.90;;;;;;5031478;28;20198;-58
2023/09/30 03:46:14;;;;;;;8.33;5.00;;;15.60;99.90;;;;;;5031377;28;20507;-57
2023/09/30 03:48:42;;;;;;;7.22;3.63;;;15.60;99.90;;;;;;5031714;28;20206;-58
2023/09/30 03:51:08;;;;;;;6.07;3.40;;;15.50;99.90;;;;;;5031580;28;20202;-58
2023/09/30 03:53:35;;;;;;;5.53;3.55;;;15.50;99.90;;;;;;5031528;28;20249;-57
2023/09/30 03:56:02;;;;;;;9.77;4.13;;;15.40;99.90;;;;;;5023593;28;20742;-57
2023/09/30 03:58:30;;;;;;;7.55;5.10;;;15.40;99.90;;;;;;5031313;28;20210;-58
2023/09/30 04:00:57;;;;;;;8.27;3.85;;;15.30;99.90;;;;;;5031222;28;20206;-57
2023/09/30 04:03:24;;;;;;;5.93;3.67;;;15.30;99.90;;;;;;5031418;28;20210;-58
2023/09/30 04:05:50;;;;;;;6.75;3.55;;;15.20;99.90;;;;;;5030712;28;20638;-57
2023/09/30 04:08:17;;;;;;;4.87;3.53;;;15.20;99.90;;;;;;5030990;28;20727;-59
2023/09/30 04:10:44;;;;;;;7.65;3.90;;;15.20;99.90;;;;;;5030995;28;20210;-57
2023/09/30 04:13:11;;;;;;;7.07;3.88;;;15.10;99.90;;;;;;5030901;28;20202;-58
2023/09/30 04:15:39;;;;;;;7.00;4.03;;;15.10;99.90;;;;;;5030796;28;20210;-57
2023/09/30 04:18:06;;;;;;;6.45;3.80;;;15.00;99.90;;;;;;5031083;28;20226;-58
2023/09/30 04:20:33;;;;;;;5.47;3.63;;;15.10;99.90;;;;;;5030984;28;20210;-58
2023/09/30 04:23:02;;;;;;;6.43;4.20;;;15.10;99.90;;;;;;5030713;28;20209;-57
2023/09/30 04:25:30;;;;;;;5.83;4.10;;;15.10;99.90;;;;;;5030501;28;20206;-59
2023/09/30 04:27:57;;;;;;;7.10;4.40;;;15.00;99.90;;;;;;5030641;28;20241;-58
2023/09/30 04:30:24;;;;;;;7.87;4.40;;;15.00;99.90;;;;;;5031122;28;20213;-58
2023/09/30 04:32:52;;;;;;;5.60;3.90;;;14.90;99.90;;;;;;5030760;28;20399;-58
2023/09/30 04:35:19;;;;;;;6.27;3.50;;;14.90;99.90;;;;;;5030647;28;20304;-58
2023/09/30 04:37:46;;;;;;;7.20;3.97;;;14.90;99.90;;;;;;5030196;28;20249;-57
2023/09/30 04:40:15;;;;;;;6.03;4.10;;;14.90;99.90;;;;;;5030666;28;20842;-57
2023/09/30 04:42:43;;;;;;;6.47;3.60;;;14.80;99.90;;;;;;5030854;28;20233;-58
2023/09/30 04:45:11;;;;;;;7.43;4.97;;;14.70;99.90;;;;;;5030657;28;20250;-58
2023/09/30 04:47:38;;;;;;;7.70;4.00;;;14.70;99.90;;;;;;5030275;28;20313;-57
2023/09/30 04:50:08;;;;;;;7.17;3.67;;;14.70;99.90;;;;;;5030396;28;20280;-57
2023/09/30 04:52:35;;;;;;;9.13;4.30;;;14.70;99.90;;;;;;5031523;28;20213;-57
2023/09/30 04:55:03;;;;;;;9.77;4.50;;;14.70;99.90;;;;;;5032186;28;20221;-57
2023/09/30 04:57:31;;;;;;;7.63;4.20;;;14.70;99.90;;;;;;5031452;28;20234;-57
2023/09/30 04:59:58;;;;;;;5.97;3.70;;;14.80;99.90;;;;;;5030531;28;20206;-57
2023/09/30 05:02:25;;;;;;;6.25;4.13;;;14.80;99.90;;;;;;5030350;28;20414;-57
2023/09/30 05:04:53;;;;;;;8.03;4.00;;;14.90;99.90;;;;;;5030087;28;20664;-57
2023/09/30 05:07:22;;;;;;;6.40;4.03;;;15.00;99.90;;;;;;5030334;28;20605;-57
2023/09/30 05:09:49;;;;;;;7.10;3.80;;;15.10;99.90;;;;;;5030416;28;20233;-57
2023/09/30 05:12:16;;;;;;;7.97;3.70;;;15.20;99.90;;;;;;5030640;28;20212;-57
2023/09/30 05:14:43;;;;;;;5.80;3.70;;;15.20;99.90;;;;;;5030522;28;20616;-57
2023/09/30 05:17:10;;;;;;;6.93;3.63;;;15.30;99.90;;;;;;5029996;28;20730;-57
2023/09/30 05:19:37;;;;;;;8.02;3.50;;;15.30;99.90;;;;;;5030018;28;20327;-57
2023/09/30 05:22:05;;;;;;;5.47;3.50;;;15.40;99.90;;;;;;5030259;28;20244;-57
2023/09/30 05:24:34;;;;;;;6.78;3.75;;;15.40;99.90;;;;;;5030168;28;20210;-57
2023/09/30 05:27:01;;;;;;;6.85;4.00;;;15.40;99.90;;;;;;5030075;28;20320;-57
2023/09/30 05:29:28;;;;;;;5.03;3.63;;;15.50;99.90;;;;;;5030246;28;20202;-57
2023/09/30 05:31:54;;;;;;;9.17;4.17;;;15.50;99.90;;;;;;5029976;28;20210;-57
2023/09/30 05:34:21;;;;;;;37.72;21.80;;;15.60;99.90;;;;;;5029867;28;20234;-57
2023/09/30 05:36:48;;;;;;;54.38;32.50;;;15.50;99.90;;;;;;5029928;28;20234;-57
2023/09/30 05:39:19;;;;;;;47.67;29.33;;;15.40;99.90;;;;;;5030039;28;20225;-56
2023/09/30 05:41:47;;;;;;;34.23;23.97;;;15.30;99.90;;;;;;5030033;28;20473;-57
2023/09/30 05:44:14;;;;;;;33.38;20.45;;;15.30;99.90;;;;;;5029840;28;20600;-57
2023/09/30 05:46:42;;;;;;;27.70;18.90;;;15.20;99.90;;;;;;5029569;28;20718;-58
2023/09/30 05:49:13;;;;;;;20.63;14.93;;;15.20;99.90;;;;;;5030369;28;20280;-57
2023/09/30 05:51:40;;;;;;;18.10;13.03;;;15.20;99.90;;;;;;5029738;28;20206;-57
2023/09/30 05:54:08;;;;;;;15.43;10.15;;;15.20;99.90;;;;;;5029675;28;20283;-56
2023/09/30 05:56:35;;;;;;;13.45;8.95;;;15.20;99.90;;;;;;5029208;28;20237;-56
2023/09/30 05:59:04;;;;;;;13.80;8.10;;;15.20;99.90;;;;;;5029672;28;20334;-57
2023/09/30 06:01:32;;;;;;;12.10;8.43;;;15.30;99.90;;;;;;5033368;28;20207;-57
2023/09/30 06:03:59;;;;;;;10.13;6.83;;;15.30;99.90;;;;;;5033263;28;20206;-57
2023/09/30 06:06:26;;;;;;;9.55;7.15;;;15.40;99.90;;;;;;5033341;28;20282;-57
2023/09/30 06:08:53;;;;;;;10.75;6.25;;;15.40;99.90;;;;;;5033332;28;20221;-57
2023/09/30 06:11:24;;;;;;;10.67;5.63;;;15.40;99.90;;;;;;5033143;28;20203;-57
2023/09/30 06:13:50;;;;;;;7.87;4.57;;;15.50;99.90;;;;;;5032652;28;20213;-57
2023/09/30 06:16:18;;;;;;;6.72;4.18;;;15.50;99.90;;;;;;5032459;28;20206;-57
2023/09/30 06:18:46;;;;;;;6.73;4.20;;;15.50;99.90;;;;;;5033150;28;20206;-57
2023/09/30 06:21:12;;;;;;;7.38;3.75;;;15.60;99.90;;;;;;5033393;28;20230;-58
2023/09/30 06:23:39;;;;;;;7.97;3.57;;;15.70;99.90;;;;;;5033301;28;20305;-57
2023/09/30 06:26:07;;;;;;;5.20;3.40;;;15.80;99.90;;;;;;5024476;28;20233;-57
2023/09/30 06:28:40;;;;;;;6.68;3.40;;;15.90;99.90;;;;;;5032630;28;20308;-57
2023/09/30 06:31:07;;;;;;;7.10;3.53;;;16.10;99.90;;;;;;5024703;28;20264;-57
2023/09/30 06:33:35;;;;;;;7.22;3.60;;;16.20;99.90;;;;;;5032906;28;20573;-57
2023/09/30 06:36:02;;;;;;;5.72;3.55;;;16.20;99.90;;;;;;5032128;28;20219;-57
2023/09/30 06:38:29;;;;;;;7.07;3.70;;;16.20;99.90;;;;;;5032373;28;20218;-57
2023/09/30 06:40:56;;;;;;;6.43;3.40;;;16.20;99.90;;;;;;5032217;28;20588;-56
2023/09/30 06:43:23;;;;;;;6.60;3.60;;;16.20;99.90;;;;;;5032529;28;20202;-58
2023/09/30 06:45:49;;;;;;;5.65;3.33;;;16.20;99.90;;;;;;5031971;28;20206;-58
2023/09/30 06:48:16;;;;;;;7.35;3.97;;;16.30;99.90;;;;;;5032111;28;20603;-57
2023/09/30 06:50:48;;;;;;;6.13;4.05;;;16.50;99.90;;;;;;5032113;28;20210;-57
2023/09/30 06:53:15;;;;;;;10.85;3.70;;;16.70;99.90;;;;;;5032296;28;20313;-57
2023/09/30 06:55:43;;;;;;;9.70;4.18;;;17.00;99.90;;;;;;5031645;28;20732;-58
2023/09/30 06:58:10;;;;;;;7.88;4.38;;;17.30;99.90;;;;;;5032186;28;20230;-57
2023/09/30 07:00:37;;;;;;;6.28;3.63;;;17.50;99.90;;;;;;5032017;28;20214;-57
2023/09/30 07:03:04;;;;;;;8.27;3.85;;;17.70;99.90;;;;;;5031791;28;20206;-57
2023/09/30 07:05:31;;;;;;;9.18;4.45;;;17.80;99.90;;;;;;5032050;28;20211;-58
2023/09/30 07:07:59;;;;;;;8.65;4.03;;;17.80;99.90;;;;;;5031837;28;20229;-58
2023/09/30 07:10:27;;;;;;;7.82;4.22;;;17.80;99.90;;;;;;5032290;28;20278;-57
2023/09/30 07:12:53;;;;;;;8.02;3.95;;;17.80;99.90;;;;;;5031419;28;20220;-57
2023/09/30 07:15:20;;;;;;;5.35;3.85;;;18.00;99.90;;;;;;5031865;28;20222;-58
2023/09/30 07:17:47;;;;;;;5.72;4.05;;;18.10;99.90;;;;;;5031528;28;20233;-58
2023/09/30 07:20:14;;;;;;;8.55;3.70;;;18.10;99.90;;;;;;5031733;28;20234;-57
2023/09/30 07:22:42;;;;;;;7.00;4.47;;;18.20;99.90;;;;;;5031493;28;20221;-58
2023/09/30 07:25:10;;;;;;;9.60;4.15;;;18.30;99.90;;;;;;5024029;28;20202;-57
2023/09/30 07:27:37;;;;;;;6.80;4.53;;;18.30;99.90;;;;;;5031961;28;20229;-57
2023/09/30 07:30:06;;;;;;;11.63;4.53;;;18.50;99.90;;;;;;5031670;28;20214;-57
2023/09/30 07:32:33;;;;;;;10.68;4.47;;;18.60;99.90;;;;;;5031827;28;20206;-56
2023/09/30 07:35:00;;;;;;;7.97;4.10;;;18.70;99.90;;;;;;5031681;28;20226;-57
2023/09/30 07:37:26;;;;;;;7.00;4.25;;;18.80;99.90;;;;;;5031558;28;20236;-57
2023/09/30 07:39:53;;;;;;;9.00;4.10;;;18.90;99.90;;;;;;5031977;28;20202;-57
2023/09/30 07:42:22;;;;;;;8.07;3.72;;;19.00;99.90;;;;;;5031752;28;20555;-57
2023/09/30 07:44:49;;;;;;;6.95;3.92;;;19.20;99.90;;;;;;5031306;28;20198;-58
2023/09/30 07:47:16;;;;;;;7.60;3.97;;;19.20;99.90;;;;;;5031383;28;20230;-58
2023/09/30 07:49:43;;;;;;;7.68;4.00;;;19.30;99.90;;;;;;5031279;28;20213;-58
2023/09/30 07:52:10;;;;;;;7.75;4.18;;;19.40;99.90;;;;;;5031544;28;20230;-58
2023/09/30 07:54:37;;;;;;;7.55;4.15;;;19.60;99.90;;;;;;5031511;28;20222;-58
2023/09/30 07:57:04;;;;;;;7.85;4.00;;;19.80;99.90;;;;;;5049489;22;20236;-60
2023/09/30 07:59:33;;;;;;;6.25;4.05;;;19.80;99.90;;;;;;5051543;28;20206;-60
2023/09/30 08:02:00;;;;;;;8.13;3.88;;;19.90;99.90;;;;;;5051074;28;20267;-60
2023/09/30 08:04:27;;;;;;;5.95;3.70;;;19.90;99.90;;;;;;5051314;28;20671;-60
2023/09/30 08:06:54;;;;;;;6.93;3.78;;;19.90;99.90;;;;;;5046903;28;20226;-60
2023/09/30 08:09:22;;;;;;;7.55;3.80;;;19.90;99.90;;;;;;5031708;28;20214;-61
2023/09/30 08:11:50;;;;;;;8.35;4.20;;;19.90;99.90;;;;;;5031468;28;20270;-61
2023/09/30 08:14:17;;;;;;;8.38;3.85;;;19.90;99.90;;;;;;5031390;28;20245;-61
2023/09/30 08:16:45;;;;;;;7.20;3.95;;;20.00;99.90;;;;;;5031123;28;20237;-59
2023/09/30 08:19:12;;;;;;;6.03;3.88;;;20.10;99.90;;;;;;5031212;28;20218;-60
2023/09/30 08:21:38;;;;;;;8.68;4.18;;;20.20;99.90;;;;;;5031308;28;20565;-60
2023/09/30 08:24:06;;;;;;;8.23;3.72;;;20.30;99.90;;;;;;5030169;28;20203;-60
2023/09/30 08:26:33;;;;;;;10.80;4.15;;;20.40;99.90;;;;;;5030914;28;20664;-60
2023/09/30 08:28:59;;;;;;;7.00;3.70;;;20.40;99.90;;;;;;5030654;28;20238;-60
2023/09/30 08:31:26;;;;;;;7.00;3.95;;;20.50;99.90;;;;;;5030721;28;20675;-60
2023/09/30 08:33:54;;;;;;;8.38;3.60;;;20.60;99.90;;;;;;5031245;28;20214;-60
2023/09/30 08:36:21;;;;;;;6.53;3.70;;;20.60;99.90;;;;;;5030602;28;20318;-60
2023/09/30 08:38:48;;;;;;;7.78;3.85;;;20.60;99.90;;;;;;5030508;28;20653;-60
2023/09/30 08:41:30;;;;;;;7.68;3.58;;;20.60;99.90;;;;;;5030777;28;20675;-60
2023/09/30 08:43:59;;;;;;;10.32;3.70;;;20.60;99.90;;;;;;5030844;28;20206;-61
2023/09/30 08:46:26;;;;;;;7.20;3.42;;;20.70;99.90;;;;;;5030661;28;20202;-60
2023/09/30 08:48:55;;;;;;;7.57;3.70;;;20.80;99.90;;;;;;5031094;28;20294;-60
2023/09/30 08:51:22;;;;;;;7.65;3.92;;;20.80;99.90;;;;;;5030912;28;20206;-60
2023/09/30 08:53:51;;;;;;;8.63;3.55;;;20.70;99.90;;;;;;5030558;28;20205;-60
2023/09/30 08:56:19;;;;;;;5.90;3.50;;;20.70;99.90;;;;;;5030503;28;20715;-60
2023/09/30 08:58:46;;;;;;;8.82;3.92;;;20.60;99.90;;;;;;5030245;28;20241;-60
2023/09/30 09:01:13;;;;;;;6.60;3.38;;;20.60;99.90;;;;;;5031177;28;20206;-60
2023/09/30 09:03:40;;;;;;;7.93;3.78;;;20.80;99.90;;;;;;5031226;28;20221;-61
2023/09/30 09:06:08;;;;;;;7.25;4.00;;;20.90;99.90;;;;;;5030731;28;20198;-60
2023/09/30 09:08:35;;;;;;;5.72;3.60;;;21.00;99.90;;;;;;5030821;28;20222;-60
2023/09/30 09:11:04;;;;;;;6.55;3.85;;;21.20;99.90;;;;;;5030492;28;20209;-60
2023/09/30 09:13:49;;;;;;;7.47;3.85;;;21.20;99.90;;;;;;5030299;28;20747;-59
2023/09/30 09:16:16;;;;;;;9.57;4.28;;;21.40;99.90;;;;;;5022434;28;20284;-59
2023/09/30 09:18:43;;;;;;;6.53;3.88;;;21.60;99.90;;;;;;5031272;28;20234;-62
2023/09/30 09:21:12;;;;;;;5.53;3.72;;;21.70;99.90;;;;;;5030807;28;20207;-60
2023/09/30 09:23:44;;;;;;;8.27;3.97;;;21.80;99.90;;;;;;5031341;28;20206;-60
2023/09/30 09:26:12;;;;;;;6.95;3.70;;;21.80;99.90;;;;;;5023062;28;20206;-59
2023/09/30 09:28:39;;;;;;;9.07;3.78;;;21.90;99.90;;;;;;5031081;28;20232;-60
2023/09/30 09:31:27;;;;;;;8.13;3.80;;;22.00;99.90;;;;;;5031506;28;20211;-60
2023/09/30 09:33:54;;;;;;;7.00;3.72;;;22.10;99.90;;;;;;5030116;28;20218;-60
2023/09/30 09:36:38;;;;;;;5.65;3.30;;;22.30;99.90;;;;;;5034095;28;20261;-59
2023/09/30 09:39:05;;;;;;;5.60;3.67;;;22.30;99.90;;;;;;5033945;28;20206;-60
2023/09/30 09:41:31;;;;;;;8.15;3.88;;;22.20;99.90;;;;;;5033851;28;20210;-59
2023/09/30 09:44:00;;;;;;;7.93;4.10;;;22.20;99.90;;;;;;5034082;28;20210;-60
2023/09/30 09:46:29;;;;;;;7.13;3.97;;;22.20;99.90;;;;;;5033648;28;20209;-60
2023/09/30 09:48:57;;;;;;;9.38;4.30;;;22.30;99.90;;;;;;5033797;28;20213;-60
2023/09/30 09:51:26;;;;;;;7.25;4.03;;;22.30;99.90;;;;;;5033926;28;20248;-60
2023/09/30 09:53:55;;;;;;;6.38;3.33;;;22.50;99.90;;;;;;5033373;28;20206;-61
2023/09/30 09:56:22;;;;;;;7.63;3.45;;;22.70;99.90;;;;;;5033648;28;20237;-60
2023/09/30 09:58:50;;;;;;;6.90;3.22;;;22.90;99.90;;;;;;5033587;28;20565;-59
2023/09/30 10:01:18;;;;;;;5.95;3.67;;;23.00;99.90;;;;;;5033849;28;20260;-60
2023/09/30 10:03:45;;;;;;;6.60;3.40;;;23.20;99.90;;;;;;5033747;28;20210;-60
2023/09/30 10:06:12;;;;;;;7.68;3.40;;;23.40;99.90;;;;;;5033248;28;20199;-60
2023/09/30 10:08:43;;;;;;;8.43;3.67;;;23.50;99.90;;;;;;5033592;28;20226;-60
2023/09/30 10:11:17;;;;;;;7.57;3.88;;;23.70;99.90;;;;;;5033449;28;20202;-60
2023/09/30 10:13:57;;;;;;;4.85;3.00;;;23.70;99.90;;;;;;5033678;28;20213;-60
2023/09/30 10:16:49;;;;;;;5.38;3.33;;;23.80;99.90;;;;;;5026475;28;20671;-60
2023/09/30 10:19:18;;;;;;;7.05;3.28;;;23.90;99.90;;;;;;5026172;28;20264;-60
2023/09/30 10:22:22;;;;;;;8.85;3.90;;;24.00;99.90;;;;;;5033386;28;20206;-61
2023/09/30 10:24:52;;;;;;;8.95;4.38;;;24.00;99.90;;;;;;5030169;28;20260;-61
2023/09/30 10:27:33;;;;;;;9.13;5.18;;;24.00;99.90;;;;;;5033292;28;20276;-62
2023/09/30 10:30:00;;;;;;;9.98;5.20;;;24.00;99.90;;;;;;5033058;28;20218;-59
2023/09/30 10:33:00;;;;;;;6.95;5.13;;;23.90;99.90;;;;;;5034046;28;20268;-62
2023/09/30 10:35:53;;;;;;;5.55;3.55;;;23.90;99.90;;;;;;5027270;28;20292;-60
2023/09/30 10:38:40;;;;;;;8.98;3.90;;;24.00;99.90;;;;;;5026042;28;20218;-60
2023/09/30 10:41:32;;;;;;;5.40;3.63;;;24.20;99.90;;;;;;5032579;28;20680;-60
2023/09/30 10:44:18;;;;;;;7.53;4.55;;;24.20;99.90;;;;;;5032830;28;20206;-61
2023/09/30 10:46:45;;;;;;;6.85;3.80;;;24.10;99.90;;;;;;5031533;28;20225;-59
2023/09/30 10:49:33;;;;;;;6.65;3.35;;;24.00;99.90;;;;;;5033265;28;20202;-60
2023/09/30 10:52:01;;;;;;;5.35;3.22;;;23.80;99.90;;;;;;5029670;28;20206;-62
2023/09/30 10:54:29;;;;;;;6.22;3.65;;;23.80;99.90;;;;;;5032707;28;20687;-59
2023/09/30 10:56:58;;;;;;;8.80;4.07;;;23.70;99.90;;;;;;5032080;28;20253;-60
2023/09/30 10:59:26;;;;;;;6.30;3.55;;;23.40;99.90;;;;;;5032408;28;20224;-60
2023/09/30 11:01:53;;;;;;;6.63;3.45;;;23.10;99.90;;;;;;5032597;28;20206;-60
2023/09/30 11:04:21;;;;;;;9.27;4.28;;;22.90;99.90;;;;;;5032622;28;20210;-60
2023/09/30 11:06:49;;;;;;;8.38;4.15;;;22.90;99.90;;;;;;5032294;28;20699;-60
2023/09/30 11:09:17;;;;;;;7.07;4.03;;;23.00;99.90;;;;;;5024662;28;20207;-60
2023/09/30 11:11:48;;;;;;;6.22;3.60;;;23.20;99.90;;;;;;5032233;28;20203;-60
2023/09/30 11:14:21;;;;;;;6.32;3.20;;;23.40;99.90;;;;;;5024297;28;20203;-60
2023/09/30 11:16:48;;;;;;;7.65;4.35;;;23.50;99.90;;;;;;5031800;28;20253;-59
2023/09/30 11:19:15;;;;;;;6.30;3.80;;;23.70;99.90;;;;;;5024310;28;20233;-60
2023/09/30 11:21:44;;;;;;;7.50;4.03;;;23.80;99.90;;;;;;5032151;28;20245;-59
2023/09/30 11:24:11;;;;;;;7.80;4.30;;;23.90;99.90;;;;;;5031748;28;20673;-59
2023/09/30 11:26:41;;;;;;;7.18;3.72;;;24.00;99.90;;;;;;5029311;28;20209;-62
2023/09/30 11:29:10;;;;;;;6.72;3.92;;;24.10;99.90;;;;;;5021160;28;20207;-62
2023/09/30 11:31:40;;;;;;;6.35;3.67;;;24.10;99.90;;;;;;5020335;28;20218;-61
2023/09/30 11:34:07;;;;;;;6.97;4.15;;;24.10;99.90;;;;;;5022431;28;20674;-62
2023/09/30 11:36:36;;;;;;;7.13;3.72;;;24.10;99.90;;;;;;5022960;28;20280;-61
2023/09/30 11:39:04;;;;;;;6.07;3.45;;;24.00;99.90;;;;;;5017895;28;20868;-62
2023/09/30 11:41:34;;;;;;;7.65;5.10;;;24.00;99.90;;;;;;5020551;28;20211;-62
2023/09/30 11:44:04;;;;;;;7.65;4.22;;;24.10;99.90;;;;;;5021551;28;20301;-60
2023/09/30 11:46:33;;;;;;;7.28;4.75;;;24.30;99.90;;;;;;5023212;28;20667;-59
2023/09/30 11:49:02;;;;;;;5.47;3.70;;;24.50;99.90;;;;;;5021431;28;20251;-61
2023/09/30 11:51:31;;;;;;;8.27;4.28;;;24.60;99.90;;;;;;5020390;28;20234;-60
2023/09/30 11:53:58;;;;;;;6.55;3.60;;;24.30;99.90;;;;;;5021066;28;20233;-60
2023/09/30 11:56:28;;;;;;;6.57;4.20;;;24.00;99.90;;;;;;5023064;28;20219;-60
2023/09/30 11:58:56;;;;;;;7.07;4.10;;;23.70;99.90;;;;;;5022219;28;20683;-59
2023/09/30 12:01:25;;;;;;;8.38;4.13;;;23.60;99.90;;;;;;5020114;28;20202;-60
2023/09/30 12:03:53;;;;;;;7.60;4.13;;;23.60;99.90;;;;;;5020495;28;20633;-60
2023/09/30 12:06:21;;;;;;;7.20;4.15;;;23.70;99.90;;;;;;5023260;28;20204;-62
2023/09/30 12:08:47;;;;;;;8.45;4.40;;;23.80;99.90;;;;;;5023594;28;20317;-60
2023/09/30 12:11:15;;;;;;;6.32;3.95;;;23.80;99.90;;;;;;5024850;28;20752;-61
2023/09/30 12:13:44;;;;;;;7.53;3.65;;;23.80;99.90;;;;;;5025485;28;20214;-60
2023/09/30 12:16:11;;;;;;;7.68;4.20;;;23.80;99.90;;;;;;5028577;28;20258;-60
2023/09/30 12:18:38;;;;;;;7.32;3.92;;;23.90;99.90;;;;;;5028550;28;20229;-59
2023/09/30 12:21:06;;;;;;;9.40;4.20;;;23.70;99.90;;;;;;5027760;28;20293;-60
2023/09/30 12:23:35;;;;;;;8.13;4.07;;;23.60;99.90;;;;;;5025788;28;20234;-60
2023/09/30 12:26:04;;;;;;;6.82;3.97;;;23.60;99.90;;;;;;5026455;28;20230;-60
2023/09/30 12:28:32;;;;;;;7.43;3.63;;;23.50;99.90;;;;;;5028394;28;20226;-60
2023/09/30 12:30:59;;;;;;;7.07;4.22;;;23.50;99.90;;;;;;5027629;28;20240;-60
2023/09/30 12:33:27;;;;;;;7.53;4.22;;;23.70;99.90;;;;;;5024615;28;20422;-59
2023/09/30 12:35:54;;;;;;;7.05;4.22;;;23.80;99.90;;;;;;5020534;28;20214;-59
2023/09/30 12:38:21;;;;;;;9.15;4.80;;;23.70;99.90;;;;;;5023027;28;20616;-60
2023/09/30 12:40:49;;;;;;;8.15;4.20;;;23.50;99.90;;;;;;5023174;28;20218;-61
2023/09/30 12:43:16;;;;;;;9.43;3.95;;;23.50;99.90;;;;;;5019558;28;20203;-60
2023/09/30 12:45:42;;;;;;;8.20;4.32;;;23.70;99.90;;;;;;5019140;28;20225;-59
2023/09/30 12:48:09;;;;;;;11.35;4.38;;;23.80;99.90;;;;;;5021294;28;20222;-60
2023/09/30 12:50:36;;;;;;;7.18;4.35;;;23.80;99.90;;;;;;5022486;28;20292;-60
2023/09/30 12:53:03;;;;;;;7.80;4.18;;;23.70;99.90;;;;;;5021376;28;20206;-59